Terminal Aerodrome Forecast
Issued by NWS

Home | Current Version | Previous Version | Text Only | Print | Product List | Glossary Off
Versions: 1 2 3 4 5 6 7 8 9 10 11 12 13 14 15 16 17 18 19 20 21 22 23 24 25 26 27

000
FTUS43 KABR 250656 AAB
TAFATY
TAF AMD
KATY 250656Z 2507/2606 VRB03KT P6SM OVC005
     FM250800 06007KT 5SM BR OVC003
     FM251700 10009KT P6SM SKC
     FM260500 VRB06KT P6SM BKN010=

USA.gov is the U.S. government's official web portal to all federal, state and local government web resources and services.